Time;durP1;ratioP1;P1;durP2;ratioP2;P2;SDS_P1;SDS_P2;PMS_P1;PMS_P2;Temp;Humidity;BMP_temperature;BMP_pressure;BME280_temperature;BME280_humidity;BME280_pressure;Samples;Min_cycle;Max_cycle;Signal;HPM_P1;HPM_P2
2021/08/15 00:00:38;;;;;;;15.53;12.50;;;;;;;;;;4996768;28;20503;-75
2021/08/15 00:03:04;;;;;;;16.50;12.37;;;;;;;;;;4996332;28;20415;-76
2021/08/15 00:05:30;;;;;;;14.33;12.33;;;;;;;;;;4995722;28;20784;-75
2021/08/15 00:07:56;;;;;;;15.47;11.80;;;;;;;;;;4997285;28;20411;-75
2021/08/15 00:10:22;;;;;;;15.37;12.03;;;;;;;;;;4995833;28;20522;-75
2021/08/15 00:12:48;;;;;;;14.67;12.77;;;;;;;;;;4997325;28;20427;-74
2021/08/15 00:15:15;;;;;;;25.60;12.07;;;;;;;;;;4995681;28;20456;-74
2021/08/15 00:17:41;;;;;;;18.40;11.97;;;;;;;;;;4997146;28;20412;-75
2021/08/15 00:20:08;;;;;;;16.13;10.87;;;;;;;;;;4995649;28;20424;-75
2021/08/15 00:22:37;;;;;;;16.00;11.50;;;;;;;;;;4997182;28;20412;-75
2021/08/15 00:25:03;;;;;;;17.30;12.30;;;;;;;;;;4996222;28;20470;-75
2021/08/15 00:27:29;;;;;;;16.00;11.43;;;;;;;;;;4996999;28;20427;-75
2021/08/15 00:29:55;;;;;;;18.60;12.30;;;;;;;;;;4995955;28;20427;-74
2021/08/15 00:32:21;;;;;;;16.37;11.00;;;;;;;;;;4996138;28;20925;-75
2021/08/15 00:34:47;;;;;;;20.97;11.53;;;;;;;;;;4994702;28;20436;-75
2021/08/15 00:37:13;;;;;;;18.00;11.70;;;;;;;;;;4996979;28;20419;-75
2021/08/15 00:39:39;;;;;;;12.80;11.07;;;;;;;;;;4995547;28;20482;-74
2021/08/15 00:42:05;;;;;;;13.43;11.03;;;;;;;;;;4994856;28;20451;-75
2021/08/15 00:44:31;;;;;;;13.27;11.83;;;;;;;;;;4994574;28;20454;-75
2021/08/15 00:46:58;;;;;;;14.30;11.47;;;;;;;;;;4996759;28;20484;-75
2021/08/15 00:49:24;;;;;;;16.70;11.80;;;;;;;;;;4998711;28;20971;-75
2021/08/15 00:51:50;;;;;;;17.33;11.60;;;;;;;;;;5015438;28;20427;-74
2021/08/15 00:54:16;;;;;;;16.43;12.23;;;;;;;;;;5011348;28;20429;-74
2021/08/15 00:56:42;;;;;;;19.87;11.17;;;;;;;;;;4997329;28;20490;-76
2021/08/15 00:59:09;;;;;;;18.07;10.50;;;;;;;;;;4994985;28;20427;-76
2021/08/15 01:01:35;;;;;;;18.03;11.20;;;;;;;;;;4996008;28;20860;-74
2021/08/15 01:04:04;;;;;;;13.83;10.40;;;;;;;;;;4996180;28;20401;-76
2021/08/15 01:06:31;;;;;;;13.67;10.70;;;;;;;;;;4995094;28;20440;-76
2021/08/15 01:08:57;;;;;;;18.07;11.97;;;;;;;;;;4995630;28;20409;-75
2021/08/15 01:11:23;;;;;;;15.00;10.80;;;;;;;;;;4994701;28;20448;-75
2021/08/15 01:13:49;;;;;;;13.20;10.47;;;;;;;;;;4995605;28;20901;-75
2021/08/15 01:16:15;;;;;;;15.70;11.80;;;;;;;;;;4995702;28;20880;-76
2021/08/15 01:18:43;;;;;;;17.47;11.97;;;;;;;;;;4995988;28;20448;-75
2021/08/15 01:21:12;;;;;;;14.13;10.97;;;;;;;;;;4994465;28;20482;-76
2021/08/15 01:23:39;;;;;;;17.53;10.97;;;;;;;;;;4995441;28;20456;-76
2021/08/15 01:26:06;;;;;;;19.57;11.47;;;;;;;;;;4995791;28;20432;-76
2021/08/15 01:28:32;;;;;;;14.63;11.10;;;;;;;;;;4995766;28;20447;-76
2021/08/15 01:30:58;;;;;;;15.83;11.00;;;;;;;;;;4986573;28;20496;-75
2021/08/15 01:33:24;;;;;;;17.87;11.93;;;;;;;;;;4981880;28;20529;-75
2021/08/15 01:35:51;;;;;;;13.90;11.53;;;;;;;;;;4994941;28;20456;-75
2021/08/15 01:38:17;;;;;;;15.07;12.17;;;;;;;;;;4995495;28;20500;-74
2021/08/15 01:40:43;;;;;;;15.13;11.97;;;;;;;;;;4994101;28;20518;-75
2021/08/15 01:43:09;;;;;;;14.37;11.33;;;;;;;;;;4994987;28;20400;-75
2021/08/15 01:45:35;;;;;;;18.97;11.33;;;;;;;;;;4994750;28;20432;-76
2021/08/15 01:48:01;;;;;;;22.40;13.10;;;;;;;;;;4996216;28;20408;-77
2021/08/15 01:50:27;;;;;;;16.43;10.23;;;;;;;;;;4994581;28;20425;-76
2021/08/15 01:52:53;;;;;;;15.43;12.37;;;;;;;;;;4994759;28;20408;-75
2021/08/15 01:55:19;;;;;;;16.80;10.70;;;;;;;;;;4996318;28;21017;-76
2021/08/15 01:57:45;;;;;;;20.87;12.13;;;;;;;;;;4995174;28;20428;-74
2021/08/15 02:00:12;;;;;;;17.87;11.03;;;;;;;;;;4994835;28;20462;-74
2021/08/15 02:02:44;;;;;;;21.97;11.67;;;;;;;;;;4993765;28;20842;-75
2021/08/15 02:05:18;;;;;;;15.53;10.80;;;;;;;;;;4995140;28;20921;-75
2021/08/15 02:07:44;;;;;;;17.60;11.47;;;;;;;;;;5007903;28;20434;-75
2021/08/15 02:10:10;;;;;;;21.03;12.97;;;;;;;;;;4994747;28;20547;-74
2021/08/15 02:12:36;;;;;;;17.60;11.80;;;;;;;;;;4993600;28;20436;-74
2021/08/15 02:15:03;;;;;;;16.10;11.40;;;;;;;;;;4995524;28;20452;-76
2021/08/15 02:17:29;;;;;;;16.00;11.70;;;;;;;;;;4993632;28;20917;-75
2021/08/15 02:19:55;;;;;;;14.70;12.70;;;;;;;;;;4994327;28;20454;-74
2021/08/15 02:22:21;;;;;;;16.77;11.77;;;;;;;;;;4993418;28;20460;-76
2021/08/15 02:24:47;;;;;;;13.07;11.03;;;;;;;;;;4995366;28;20412;-75
2021/08/15 02:27:13;;;;;;;17.10;11.90;;;;;;;;;;4993531;28;20436;-75
2021/08/15 02:29:39;;;;;;;19.90;13.23;;;;;;;;;;4994138;28;20451;-75
2021/08/15 02:32:05;;;;;;;14.33;12.17;;;;;;;;;;4993306;28;20444;-76
2021/08/15 02:34:31;;;;;;;15.73;11.73;;;;;;;;;;4995298;28;20416;-75
2021/08/15 02:36:57;;;;;;;15.10;12.97;;;;;;;;;;4993414;28;21037;-75
2021/08/15 02:39:23;;;;;;;21.33;13.07;;;;;;;;;;4994314;28;20773;-76
2021/08/15 02:41:49;;;;;;;21.43;12.10;;;;;;;;;;4993355;28;20475;-75
2021/08/15 02:44:15;;;;;;;18.23;13.37;;;;;;;;;;4994538;28;20432;-76
2021/08/15 02:46:41;;;;;;;16.30;12.50;;;;;;;;;;4993199;28;20439;-75
2021/08/15 02:49:07;;;;;;;15.43;12.93;;;;;;;;;;4994019;28;20886;-75
2021/08/15 02:51:33;;;;;;;16.13;12.13;;;;;;;;;;4992050;28;20455;-76
2021/08/15 02:53:59;;;;;;;19.20;12.43;;;;;;;;;;4995066;28;21005;-76
2021/08/15 02:56:25;;;;;;;18.53;13.43;;;;;;;;;;4994951;28;20497;-75
2021/08/15 02:58:51;;;;;;;19.33;13.97;;;;;;;;;;4993978;28;20484;-75
2021/08/15 03:01:17;;;;;;;21.30;13.73;;;;;;;;;;4991178;28;20848;-76
2021/08/15 03:03:43;;;;;;;17.57;13.57;;;;;;;;;;4993206;28;20404;-76
2021/08/15 03:06:09;;;;;;;15.80;13.10;;;;;;;;;;4999762;28;20416;-76
2021/08/15 03:08:35;;;;;;;16.70;12.70;;;;;;;;;;4999878;28;20436;-75
2021/08/15 03:11:01;;;;;;;17.03;12.40;;;;;;;;;;4999618;28;20463;-77
2021/08/15 03:13:27;;;;;;;16.20;12.97;;;;;;;;;;5001029;28;20432;-76
2021/08/15 03:15:53;;;;;;;16.00;13.87;;;;;;;;;;5000718;28;20554;-74
2021/08/15 03:18:19;;;;;;;14.70;12.30;;;;;;;;;;5000667;28;20830;-74
2021/08/15 03:20:46;;;;;;;21.40;13.43;;;;;;;;;;4999415;28;20452;-75
2021/08/15 03:23:12;;;;;;;17.53;13.27;;;;;;;;;;5000824;28;20416;-74
2021/08/15 03:25:38;;;;;;;16.93;13.10;;;;;;;;;;5000307;28;20449;-75
2021/08/15 03:28:04;;;;;;;16.33;12.50;;;;;;;;;;5000044;28;20507;-75
2021/08/15 03:30:30;;;;;;;16.00;12.23;;;;;;;;;;4999380;28;20462;-75
2021/08/15 03:32:56;;;;;;;17.47;13.70;;;;;;;;;;5000009;28;20428;-74
2021/08/15 03:35:23;;;;;;;13.87;12.37;;;;;;;;;;5000048;28;20467;-76
2021/08/15 03:37:49;;;;;;;18.30;12.97;;;;;;;;;;5000586;28;20415;-76
2021/08/15 03:40:15;;;;;;;20.43;13.13;;;;;;;;;;4997376;28;20432;-76
2021/08/15 03:42:41;;;;;;;16.77;13.50;;;;;;;;;;5000739;28;20408;-74
2021/08/15 03:45:08;;;;;;;16.70;13.40;;;;;;;;;;4998862;28;20432;-75
2021/08/15 03:47:34;;;;;;;17.93;13.27;;;;;;;;;;4999890;28;20751;-75
2021/08/15 03:50:01;;;;;;;19.17;13.40;;;;;;;;;;4999045;28;20460;-75
2021/08/15 03:52:27;;;;;;;16.87;13.60;;;;;;;;;;5000527;28;20471;-75
2021/08/15 03:54:53;;;;;;;17.93;13.40;;;;;;;;;;5000234;28;20450;-75
2021/08/15 03:57:19;;;;;;;15.67;12.30;;;;;;;;;;4999184;28;20412;-75
2021/08/15 03:59:45;;;;;;;21.63;12.60;;;;;;;;;;4999050;28;20424;-75
2021/08/15 04:02:11;;;;;;;17.10;13.10;;;;;;;;;;5000589;28;20436;-74
2021/08/15 04:04:37;;;;;;;16.70;13.20;;;;;;;;;;4999776;28;21103;-74
2021/08/15 04:07:04;;;;;;;19.17;13.70;;;;;;;;;;4999834;28;20459;-74
2021/08/15 04:09:30;;;;;;;20.20;14.17;;;;;;;;;;4998950;28;20404;-75
2021/08/15 04:11:56;;;;;;;15.93;13.10;;;;;;;;;;5000444;28;20436;-74
2021/08/15 04:14:22;;;;;;;17.10;12.60;;;;;;;;;;4996025;28;20409;-76
2021/08/15 04:16:48;;;;;;;17.90;12.97;;;;;;;;;;4996820;28;20543;-74
2021/08/15 04:19:15;;;;;;;16.80;12.63;;;;;;;;;;5000859;28;20427;-76
2021/08/15 04:21:41;;;;;;;18.43;12.40;;;;;;;;;;5015770;28;20451;-76
2021/08/15 04:24:07;;;;;;;15.43;12.70;;;;;;;;;;5015507;28;20418;-76
2021/08/15 04:26:33;;;;;;;15.13;12.03;;;;;;;;;;4996887;28;20536;-75
2021/08/15 04:28:59;;;;;;;15.53;12.43;;;;;;;;;;4996611;28;20435;-75
2021/08/15 04:31:25;;;;;;;17.23;12.40;;;;;;;;;;4996187;28;20538;-75
2021/08/15 04:33:51;;;;;;;17.27;11.90;;;;;;;;;;4997000;28;20499;-75
2021/08/15 04:36:17;;;;;;;17.50;12.63;;;;;;;;;;4995859;28;20464;-75
2021/08/15 04:38:43;;;;;;;17.50;12.30;;;;;;;;;;4995447;28;20424;-75
2021/08/15 04:41:09;;;;;;;14.13;11.20;;;;;;;;;;4995883;28;20456;-75
2021/08/15 04:43:35;;;;;;;16.57;11.63;;;;;;;;;;4997152;28;20440;-74
2021/08/15 04:46:01;;;;;;;16.10;11.10;;;;;;;;;;4994106;28;20432;-75
2021/08/15 04:48:28;;;;;;;17.20;12.40;;;;;;;;;;4996217;28;20423;-75
2021/08/15 04:50:54;;;;;;;19.33;13.27;;;;;;;;;;4995833;28;20456;-75
2021/08/15 04:53:20;;;;;;;17.93;12.60;;;;;;;;;;4996628;28;20408;-75
2021/08/15 04:55:46;;;;;;;16.73;12.63;;;;;;;;;;4995125;28;20551;-74
2021/08/15 04:58:12;;;;;;;14.43;12.27;;;;;;;;;;4996219;28;20500;-74
2021/08/15 05:00:38;;;;;;;16.00;12.37;;;;;;;;;;4995617;28;20819;-75
2021/08/15 05:03:05;;;;;;;14.40;11.73;;;;;;;;;;4996408;28;20500;-75
2021/08/15 05:05:31;;;;;;;18.47;11.47;;;;;;;;;;4995673;28;20991;-75
2021/08/15 05:07:57;;;;;;;16.80;11.07;;;;;;;;;;4993915;28;20443;-75
2021/08/15 05:10:23;;;;;;;16.87;11.10;;;;;;;;;;4994364;28;20823;-75
2021/08/15 05:12:49;;;;;;;15.43;11.53;;;;;;;;;;5002320;28;20504;-74
2021/08/15 05:15:16;;;;;;;14.10;11.10;;;;;;;;;;4994877;28;21024;-74
2021/08/15 05:17:42;;;;;;;17.63;13.50;;;;;;;;;;4995940;28;20409;-75
2021/08/15 05:20:08;;;;;;;15.40;11.20;;;;;;;;;;4995209;28;20421;-75
2021/08/15 05:22:34;;;;;;;14.27;10.60;;;;;;;;;;4992295;28;20425;-75
2021/08/15 05:25:00;;;;;;;14.50;9.83;;;;;;;;;;4987260;28;20466;-74
2021/08/15 05:27:26;;;;;;;18.87;11.40;;;;;;;;;;4995363;28;20882;-74
2021/08/15 05:29:52;;;;;;;18.50;10.87;;;;;;;;;;4995123;28;20401;-78
2021/08/15 05:32:18;;;;;;;17.63;11.17;;;;;;;;;;4996259;28;20766;-75
2021/08/15 05:34:44;;;;;;;16.87;10.87;;;;;;;;;;4995288;28;20407;-74
2021/08/15 05:37:10;;;;;;;12.60;10.33;;;;;;;;;;4994398;28;20468;-75
2021/08/15 05:39:36;;;;;;;16.60;10.00;;;;;;;;;;4995261;28;20428;-74
2021/08/15 05:42:03;;;;;;;15.37;10.53;;;;;;;;;;4994723;28;20925;-75
2021/08/15 05:44:29;;;;;;;13.10;9.60;;;;;;;;;;4995024;28;20425;-75
2021/08/15 05:46:55;;;;;;;16.50;11.40;;;;;;;;;;4994570;28;20793;-75
2021/08/15 05:49:21;;;;;;;17.27;10.87;;;;;;;;;;4995071;28;20409;-75
2021/08/15 05:51:47;;;;;;;22.90;10.30;;;;;;;;;;4995772;28;20528;-75
2021/08/15 05:54:13;;;;;;;22.47;11.67;;;;;;;;;;4994966;28;20408;-75
2021/08/15 05:56:39;;;;;;;19.70;11.50;;;;;;;;;;4993844;28;20467;-75
2021/08/15 05:59:05;;;;;;;12.87;10.00;;;;;;;;;;4994759;28;20428;-75
2021/08/15 06:01:33;;;;;;;15.40;10.67;;;;;;;;;;4995643;28;20526;-75
2021/08/15 06:04:01;;;;;;;12.73;10.13;;;;;;;;;;4994728;28;20898;-75
2021/08/15 06:06:27;;;;;;;19.03;12.57;;;;;;;;;;4992663;28;20551;-75
2021/08/15 06:08:53;;;;;;;15.87;10.77;;;;;;;;;;4994862;28;20406;-75
2021/08/15 06:11:19;;;;;;;14.77;9.60;;;;;;;;;;4994826;28;20826;-75
2021/08/15 06:13:45;;;;;;;12.13;10.90;;;;;;;;;;4994583;28;20412;-75
2021/08/15 06:16:11;;;;;;;18.03;11.53;;;;;;;;;;4993705;28;20547;-76
2021/08/15 06:18:37;;;;;;;19.53;11.70;;;;;;;;;;4994708;28;20440;-75
2021/08/15 06:21:03;;;;;;;17.90;12.70;;;;;;;;;;4994739;28;20452;-75
2021/08/15 06:23:29;;;;;;;23.07;13.27;;;;;;;;;;4994346;28;20447;-75
2021/08/15 06:25:55;;;;;;;19.63;12.07;;;;;;;;;;4993629;28;20436;-76
2021/08/15 06:28:21;;;;;;;15.80;12.13;;;;;;;;;;4994332;28;20766;-76
2021/08/15 06:30:47;;;;;;;25.50;12.87;;;;;;;;;;4995100;28;20510;-76
2021/08/15 06:33:13;;;;;;;18.20;11.73;;;;;;;;;;4986704;28;20479;-75
2021/08/15 06:35:39;;;;;;;20.70;13.60;;;;;;;;;;4989029;28;20506;-76
2021/08/15 06:38:05;;;;;;;17.63;13.37;;;;;;;;;;4982568;28;20819;-73
2021/08/15 06:40:31;;;;;;;19.20;12.90;;;;;;;;;;5004482;28;20459;-75
2021/08/15 06:43:07;;;;;;;13.67;11.07;;;;;;;;;;4993242;28;20510;-74
2021/08/15 06:45:33;;;;;;;24.57;12.70;;;;;;;;;;4979739;28;20751;-75
2021/08/15 06:47:59;;;;;;;18.13;15.43;;;;;;;;;;4991315;28;20850;-74
2021/08/15 06:50:28;;;;;;;17.17;12.63;;;;;;;;;;4992935;28;20432;-74
2021/08/15 06:52:54;;;;;;;18.50;14.40;;;;;;;;;;4991744;28;20769;-75
2021/08/15 06:55:20;;;;;;;16.60;11.37;;;;;;;;;;4993489;28;20467;-74
2021/08/15 06:57:46;;;;;;;16.00;11.33;;;;;;;;;;4993410;28;20486;-75
2021/08/15 07:00:13;;;;;;;18.67;13.73;;;;;;;;;;5009427;28;20777;-76
2021/08/15 07:02:39;;;;;;;20.57;12.90;;;;;;;;;;4994399;28;20459;-75
2021/08/15 07:05:06;;;;;;;20.40;12.70;;;;;;;;;;4994095;28;20462;-74
2021/08/15 07:07:32;;;;;;;16.67;11.83;;;;;;;;;;4993467;28;20432;-75
2021/08/15 07:09:58;;;;;;;19.20;13.33;;;;;;;;;;4998265;28;20431;-75
2021/08/15 07:12:24;;;;;;;15.47;11.13;;;;;;;;;;4994055;28;20424;-75
2021/08/15 07:14:50;;;;;;;12.70;11.00;;;;;;;;;;5002914;28;20423;-75
2021/08/15 07:17:16;;;;;;;15.10;10.70;;;;;;;;;;5013479;28;20469;-75
2021/08/15 07:19:42;;;;;;;15.57;10.60;;;;;;;;;;4997515;28;20424;-75
2021/08/15 07:22:08;;;;;;;16.67;11.07;;;;;;;;;;4993842;28;20506;-75
2021/08/15 07:24:34;;;;;;;18.77;12.47;;;;;;;;;;4994162;28;20416;-75
2021/08/15 07:27:00;;;;;;;12.13;10.70;;;;;;;;;;4994374;28;20409;-75
2021/08/15 07:29:26;;;;;;;16.23;12.83;;;;;;;;;;4994256;28;20503;-75
2021/08/15 07:31:53;;;;;;;18.90;11.60;;;;;;;;;;4993946;28;20432;-75
2021/08/15 07:34:19;;;;;;;16.73;10.20;;;;;;;;;;4993040;28;20459;-75
2021/08/15 07:36:46;;;;;;;19.23;12.10;;;;;;;;;;5000367;28;20512;-75
2021/08/15 07:39:12;;;;;;;20.80;12.17;;;;;;;;;;5002850;28;20431;-75
2021/08/15 07:41:38;;;;;;;16.30;11.30;;;;;;;;;;4993294;28;20472;-76
2021/08/15 07:44:04;;;;;;;12.57;10.10;;;;;;;;;;4992615;28;20905;-75
2021/08/15 07:46:30;;;;;;;21.27;11.23;;;;;;;;;;4994036;28;20754;-75
2021/08/15 07:48:57;;;;;;;15.23;11.73;;;;;;;;;;5000018;28;20430;-75
2021/08/15 07:51:23;;;;;;;23.73;10.10;;;;;;;;;;5016773;28;20573;-75
2021/08/15 07:53:50;;;;;;;11.60;9.30;;;;;;;;;;5010311;28;20435;-75
2021/08/15 07:56:16;;;;;;;15.50;10.33;;;;;;;;;;4996645;28;20464;-75
2021/08/15 07:58:42;;;;;;;16.23;10.80;;;;;;;;;;4996982;28;20943;-75
2021/08/15 08:01:08;;;;;;;15.20;11.17;;;;;;;;;;4996920;28;20844;-76
2021/08/15 08:03:34;;;;;;;11.87;9.47;;;;;;;;;;4996518;28;20424;-75
2021/08/15 08:06:00;;;;;;;12.80;10.50;;;;;;;;;;4998115;28;20909;-74
2021/08/15 08:08:26;;;;;;;11.70;9.20;;;;;;;;;;4996532;28;20412;-76
2021/08/15 08:10:55;;;;;;;17.60;10.73;;;;;;;;;;4997067;28;20499;-76
2021/08/15 08:13:22;;;;;;;13.47;9.63;;;;;;;;;;4996182;28;20407;-76
2021/08/15 08:15:48;;;;;;;13.33;11.00;;;;;;;;;;4997900;28;20483;-75
2021/08/15 08:18:15;;;;;;;15.70;11.23;;;;;;;;;;4997358;28;20907;-76
2021/08/15 08:20:41;;;;;;;14.50;10.53;;;;;;;;;;4995856;28;20526;-75
2021/08/15 08:23:09;;;;;;;17.70;9.87;;;;;;;;;;4996923;28;20768;-75
2021/08/15 08:25:35;;;;;;;12.93;9.77;;;;;;;;;;5012548;28;20434;-75
2021/08/15 08:28:01;;;;;;;12.43;8.97;;;;;;;;;;5014950;28;20415;-76
2021/08/15 08:30:27;;;;;;;14.30;9.40;;;;;;;;;;4998195;28;20526;-75
2021/08/15 08:32:54;;;;;;;15.70;10.47;;;;;;;;;;4996688;28;20415;-76
2021/08/15 08:35:20;;;;;;;16.87;10.00;;;;;;;;;;4996593;28;20468;-76
2021/08/15 08:37:47;;;;;;;16.37;11.20;;;;;;;;;;4996398;28;20475;-76
2021/08/15 08:40:14;;;;;;;13.23;9.43;;;;;;;;;;4995399;28;20476;-76
2021/08/15 08:42:40;;;;;;;13.73;9.87;;;;;;;;;;4996516;28;20428;-75
2021/08/15 08:45:06;;;;;;;11.97;9.83;;;;;;;;;;4996011;28;20439;-76
2021/08/15 08:47:33;;;;;;;12.80;9.93;;;;;;;;;;4996177;28;20401;-76
2021/08/15 08:50:00;;;;;;;15.40;10.27;;;;;;;;;;4995284;28;20428;-76
2021/08/15 08:52:29;;;;;;;13.73;10.27;;;;;;;;;;4996497;28;20448;-76
2021/08/15 08:54:55;;;;;;;11.83;9.53;;;;;;;;;;4995161;28;20905;-76
2021/08/15 08:57:21;;;;;;;15.17;9.63;;;;;;;;;;4994408;28;20440;-76
2021/08/15 08:59:47;;;;;;;14.80;9.00;;;;;;;;;;4995086;28;20408;-76
2021/08/15 09:02:14;;;;;;;21.37;10.50;;;;;;;;;;4995522;28;20487;-77
2021/08/15 09:04:40;;;;;;;15.23;10.10;;;;;;;;;;4996370;28;20779;-76
2021/08/15 09:07:13;;;;;;;13.53;9.60;;;;;;;;;;4995109;28;20460;-76
2021/08/15 09:09:41;;;;;;;13.40;8.97;;;;;;;;;;4995512;28;20444;-76
2021/08/15 09:12:07;;;;;;;14.83;9.93;;;;;;;;;;4995849;28;20448;-76
2021/08/15 09:14:34;;;;;;;12.83;9.57;;;;;;;;;;4995624;28;20405;-76
2021/08/15 09:17:00;;;;;;;11.63;8.47;;;;;;;;;;4994818;28;20451;-76
2021/08/15 09:19:29;;;;;;;11.50;9.80;;;;;;;;;;4995580;28;20462;-75
2021/08/15 09:21:56;;;;;;;13.70;10.13;;;;;;;;;;4995821;28;20481;-75
2021/08/15 09:24:22;;;;;;;12.73;9.73;;;;;;;;;;4995320;28;20477;-75
2021/08/15 09:26:58;;;;;;;11.83;8.43;;;;;;;;;;4994923;28;20401;-76
2021/08/15 09:29:24;;;;;;;13.93;9.90;;;;;;;;;;4994274;28;20431;-75
2021/08/15 09:31:51;;;;;;;18.30;9.70;;;;;;;;;;4996037;28;20432;-78
2021/08/15 09:34:28;;;;;;;10.50;9.10;;;;;;;;;;4994785;28;20420;-76
2021/08/15 09:36:54;;;;;;;14.30;9.40;;;;;;;;;;4993785;28;20463;-76
2021/08/15 09:39:33;;;;;;;15.23;9.87;;;;;;;;;;4994990;28;20420;-75
2021/08/15 09:42:00;;;;;;;13.97;9.17;;;;;;;;;;4995897;28;20443;-76
2021/08/15 09:44:26;;;;;;;15.60;9.87;;;;;;;;;;4994996;28;20462;-75
2021/08/15 09:46:58;;;;;;;11.10;8.57;;;;;;;;;;4995014;28;20407;-75
2021/08/15 09:49:24;;;;;;;13.10;8.93;;;;;;;;;;4995315;28;20427;-76
2021/08/15 09:51:50;;;;;;;13.03;9.67;;;;;;;;;;4996072;28;20428;-76
2021/08/15 09:54:19;;;;;;;13.43;8.67;;;;;;;;;;4994157;28;20427;-75
2021/08/15 09:56:45;;;;;;;13.53;9.57;;;;;;;;;;4994956;28;20542;-76
2021/08/15 09:59:19;;;;;;;13.83;8.97;;;;;;;;;;4994191;28;20428;-76
2021/08/15 10:01:46;;;;;;;11.40;8.70;;;;;;;;;;4995871;28;20486;-76
2021/08/15 10:04:12;;;;;;;11.80;10.07;;;;;;;;;;4993769;28;20448;-76
2021/08/15 10:06:42;;;;;;;16.13;10.73;;;;;;;;;;4995059;28;20821;-76
2021/08/15 10:09:08;;;;;;;18.47;9.40;;;;;;;;;;4993910;28;20455;-76
2021/08/15 10:11:35;;;;;;;13.27;10.03;;;;;;;;;;4994661;28;20436;-75
2021/08/15 10:14:02;;;;;;;11.30;9.73;;;;;;;;;;4993726;28;20436;-75
2021/08/15 10:16:30;;;;;;;14.03;8.33;;;;;;;;;;4994505;28;20976;-75
2021/08/15 10:18:56;;;;;;;14.17;8.97;;;;;;;;;;4993516;28;20420;-76
2021/08/15 10:21:23;;;;;;;17.97;10.43;;;;;;;;;;4995642;28;20507;-76
2021/08/15 10:23:49;;;;;;;14.13;9.63;;;;;;;;;;4993577;28;20428;-76
2021/08/15 10:26:27;;;;;;;14.43;9.50;;;;;;;;;;4993455;28;20435;-76
2021/08/15 10:28:54;;;;;;;14.43;9.30;;;;;;;;;;4993450;28;20424;-76
2021/08/15 10:31:20;;;;;;;11.03;8.20;;;;;;;;;;4995548;28;20437;-75
2021/08/15 10:34:01;;;;;;;10.97;8.87;;;;;;;;;;4993797;28;20452;-76
2021/08/15 10:36:31;;;;;;;12.57;7.37;;;;;;;;;;4994309;28;20515;-76
2021/08/15 10:38:58;;;;;;;12.10;8.20;;;;;;;;;;4993923;28;20428;-76
2021/08/15 10:41:53;;;;;;;12.70;8.20;;;;;;;;;;4994663;28;20452;-76
2021/08/15 10:44:20;;;;;;;13.47;8.10;;;;;;;;;;4983748;28;20460;-76
2021/08/15 10:47:04;;;;;;;14.70;9.23;;;;;;;;;;4992891;28;20519;-76
2021/08/15 10:49:46;;;;;;;12.87;8.83;;;;;;;;;;4994412;28;20427;-74
2021/08/15 10:52:34;;;;;;;12.93;7.50;;;;;;;;;;4993948;28;20929;-75
2021/08/15 10:55:00;;;;;;;16.93;9.67;;;;;;;;;;4974599;28;20415;-75
2021/08/15 10:57:48;;;;;;;12.80;8.33;;;;;;;;;;4983880;28;20420;-76
2021/08/15 11:00:29;;;;;;;15.07;8.20;;;;;;;;;;4991022;28;20547;-75
2021/08/15 11:03:21;;;;;;;18.10;8.03;;;;;;;;;;4993158;28;20428;-75
2021/08/15 11:05:47;;;;;;;14.67;8.23;;;;;;;;;;4984996;28;20828;-74
2021/08/15 11:08:32;;;;;;;10.17;8.20;;;;;;;;;;4991994;28;20507;-75
2021/08/15 11:11:10;;;;;;;11.57;7.27;;;;;;;;;;4991413;28;20420;-75
2021/08/15 11:13:37;;;;;;;12.10;7.70;;;;;;;;;;4992976;28;20812;-75
2021/08/15 11:16:29;;;;;;;12.37;7.87;;;;;;;;;;4993652;28;20475;-75
2021/08/15 11:19:11;;;;;;;8.90;6.87;;;;;;;;;;4964914;28;20440;-74
2021/08/15 11:21:55;;;;;;;12.10;8.90;;;;;;;;;;4993637;28;20419;-74
2021/08/15 11:24:24;;;;;;;16.70;8.47;;;;;;;;;;4995509;28;20420;-75
2021/08/15 11:26:52;;;;;;;14.63;8.00;;;;;;;;;;4997379;28;20739;-76
2021/08/15 11:29:22;;;;;;;9.27;6.67;;;;;;;;;;5008555;28;20427;-75
2021/08/15 11:31:49;;;;;;;12.50;7.43;;;;;;;;;;5001235;28;20435;-75
2021/08/15 11:34:15;;;;;;;9.97;7.10;;;;;;;;;;4996879;28;20460;-76
2021/08/15 11:36:41;;;;;;;14.73;8.43;;;;;;;;;;4997409;28;20455;-75
2021/08/15 11:39:08;;;;;;;9.63;7.10;;;;;;;;;;4997891;28;20427;-75
2021/08/15 11:41:35;;;;;;;12.30;7.60;;;;;;;;;;4997312;28;20456;-75
2021/08/15 11:44:01;;;;;;;14.20;8.87;;;;;;;;;;4996452;28;20428;-75
2021/08/15 11:46:27;;;;;;;13.17;8.00;;;;;;;;;;4997686;28;20957;-75
2021/08/15 11:48:53;;;;;;;10.37;8.03;;;;;;;;;;4997771;28;20431;-76
2021/08/15 11:51:19;;;;;;;11.93;8.33;;;;;;;;;;4997089;28;20420;-75
2021/08/15 11:53:47;;;;;;;11.93;8.40;;;;;;;;;;4996309;28;20432;-75
2021/08/15 11:56:18;;;;;;;12.77;8.27;;;;;;;;;;4997683;28;20850;-76
2021/08/15 11:58:47;;;;;;;10.93;8.60;;;;;;;;;;4997372;28;20460;-75
2021/08/15 12:01:15;;;;;;;13.30;8.20;;;;;;;;;;4996894;28;20531;-75
2021/08/15 12:03:41;;;;;;;15.17;8.00;;;;;;;;;;4994739;28;20936;-75
2021/08/15 12:06:08;;;;;;;13.60;9.03;;;;;;;;;;4996697;28;20423;-75
2021/08/15 12:08:35;;;;;;;10.87;7.97;;;;;;;;;;4997563;28;20447;-76
2021/08/15 12:11:01;;;;;;;11.50;9.03;;;;;;;;;;4996676;28;20901;-76
2021/08/15 12:13:33;;;;;;;13.80;8.10;;;;;;;;;;4994882;28;20528;-75
2021/08/15 12:15:59;;;;;;;9.37;8.20;;;;;;;;;;4996589;28;20547;-75
2021/08/15 12:18:26;;;;;;;12.83;8.60;;;;;;;;;;5001477;28;20510;-75
2021/08/15 12:20:52;;;;;;;11.50;8.40;;;;;;;;;;5015992;28;20473;-74
2021/08/15 12:23:18;;;;;;;14.63;8.30;;;;;;;;;;5011350;28;20455;-75
2021/08/15 12:25:44;;;;;;;13.70;8.40;;;;;;;;;;4996487;28;20404;-75
2021/08/15 12:28:10;;;;;;;13.67;7.20;;;;;;;;;;4997275;28;20412;-76
2021/08/15 12:30:36;;;;;;;12.60;7.77;;;;;;;;;;4996461;28;20420;-75
2021/08/15 12:33:21;;;;;;;11.90;8.30;;;;;;;;;;4995652;28;20411;-76
2021/08/15 12:35:47;;;;;;;11.70;7.37;;;;;;;;;;4995253;28;20440;-75
2021/08/15 12:38:26;;;;;;;12.87;8.10;;;;;;;;;;4996322;28;20439;-76
2021/08/15 12:40:52;;;;;;;9.93;7.50;;;;;;;;;;4996136;28;20436;-76
2021/08/15 12:43:23;;;;;;;10.60;7.13;;;;;;;;;;4995226;28;20399;-75
2021/08/15 12:45:49;;;;;;;11.40;8.30;;;;;;;;;;4996131;28;20484;-76
2021/08/15 12:48:18;;;;;;;8.07;6.70;;;;;;;;;;4996388;28;20765;-75
2021/08/15 12:50:45;;;;;;;15.30;7.20;;;;;;;;;;4995967;28;20486;-76
2021/08/15 12:53:22;;;;;;;10.13;6.70;;;;;;;;;;4995878;28;20415;-76
2021/08/15 12:55:53;;;;;;;11.50;6.87;;;;;;;;;;5015554;28;20451;-74
2021/08/15 12:58:20;;;;;;;12.17;6.77;;;;;;;;;;5000690;28;20486;-75
2021/08/15 13:00:47;;;;;;;12.10;8.40;;;;;;;;;;4995699;28;20424;-76
2021/08/15 13:03:15;;;;;;;9.30;8.00;;;;;;;;;;4995802;28;20759;-76
2021/08/15 13:05:42;;;;;;;12.53;7.23;;;;;;;;;;5015645;28;20411;-76
2021/08/15 13:08:08;;;;;;;12.50;6.90;;;;;;;;;;5014443;28;20411;-78
2021/08/15 13:10:35;;;;;;;12.20;7.87;;;;;;;;;;4995204;28;20471;-76
2021/08/15 13:13:01;;;;;;;12.70;7.40;;;;;;;;;;4995516;28;20424;-76
2021/08/15 13:15:28;;;;;;;9.17;7.67;;;;;;;;;;4994918;28;20474;-75
2021/08/15 13:17:54;;;;;;;12.40;8.07;;;;;;;;;;4995592;28;20412;-76
2021/08/15 13:20:24;;;;;;;12.80;7.13;;;;;;;;;;4995344;28;20882;-74
2021/08/15 13:22:51;;;;;;;11.67;7.60;;;;;;;;;;4996345;28;20412;-75
2021/08/15 13:25:18;;;;;;;14.47;8.20;;;;;;;;;;4994755;28;20432;-75
2021/08/15 13:27:44;;;;;;;10.03;7.57;;;;;;;;;;4995335;28;20415;-75
2021/08/15 13:30:11;;;;;;;12.73;7.80;;;;;;;;;;4995565;28;20438;-74
2021/08/15 13:32:38;;;;;;;12.80;8.30;;;;;;;;;;5010242;28;20783;-76
2021/08/15 13:35:05;;;;;;;13.50;7.43;;;;;;;;;;4994825;28;20909;-75
2021/08/15 13:37:31;;;;;;;10.10;8.37;;;;;;;;;;4995013;28;20768;-76
2021/08/15 13:39:59;;;;;;;10.10;7.63;;;;;;;;;;4994856;28;20518;-76
2021/08/15 13:42:26;;;;;;;12.57;8.40;;;;;;;;;;4995951;28;20509;-76
2021/08/15 13:44:54;;;;;;;10.03;8.20;;;;;;;;;;4992911;28;20835;-76
2021/08/15 13:47:20;;;;;;;11.93;7.53;;;;;;;;;;4994736;28;20407;-75
2021/08/15 13:49:46;;;;;;;13.10;8.23;;;;;;;;;;4993519;28;21007;-74
2021/08/15 13:52:12;;;;;;;14.87;7.87;;;;;;;;;;4995464;28;20752;-75
2021/08/15 13:54:39;;;;;;;8.47;7.07;;;;;;;;;;4993938;28;20511;-75
2021/08/15 13:57:06;;;;;;;11.00;7.30;;;;;;;;;;4995503;28;20850;-75
2021/08/15 13:59:32;;;;;;;11.60;6.80;;;;;;;;;;4994801;28;20448;-76
2021/08/15 14:01:58;;;;;;;11.50;7.10;;;;;;;;;;4993999;28;20513;-75
2021/08/15 14:04:24;;;;;;;7.93;6.60;;;;;;;;;;4993765;28;20926;-76
2021/08/15 14:06:50;;;;;;;12.30;7.50;;;;;;;;;;4994816;28;20458;-74
2021/08/15 14:09:16;;;;;;;9.80;7.00;;;;;;;;;;4995126;28;20599;-76
2021/08/15 14:11:42;;;;;;;16.23;8.27;;;;;;;;;;4995847;28;20613;-75
2021/08/15 14:14:08;;;;;;;11.30;7.37;;;;;;;;;;4994014;28;20823;-75
2021/08/15 14:16:35;;;;;;;9.70;7.30;;;;;;;;;;4994282;28;20594;-75
2021/08/15 14:19:01;;;;;;;14.97;7.43;;;;;;;;;;4994895;28;20435;-75
2021/08/15 14:21:27;;;;;;;10.80;6.90;;;;;;;;;;4994493;28;20518;-74
2021/08/15 14:23:53;;;;;;;10.73;6.97;;;;;;;;;;4992431;28;20443;-75